sensor_id;sensor_type;location;lat;lon;timestamp;P1;durP1;ratioP1;P2;durP2;ratioP2
22068;SDS011;13887;57.196;-2.100;2022-07-29T00:01:43;18.07;;;16.97;;
22068;SDS011;13887;57.196;-2.100;2022-07-29T00:04:09;17.37;;;16.17;;
22068;SDS011;13887;57.196;-2.100;2022-07-29T00:06:36;17.73;;;16.43;;
22068;SDS011;13887;57.196;-2.100;2022-07-29T00:09:03;17.00;;;16.07;;
22068;SDS011;13887;57.196;-2.100;2022-07-29T00:11:29;17.23;;;16.33;;
22068;SDS011;13887;57.196;-2.100;2022-07-29T00:13:55;18.17;;;16.80;;
22068;SDS011;13887;57.196;-2.100;2022-07-29T00:16:21;18.83;;;17.47;;
22068;SDS011;13887;57.196;-2.100;2022-07-29T00:18:48;16.90;;;16.07;;
22068;SDS011;13887;57.196;-2.100;2022-07-29T00:21:15;17.97;;;16.77;;
22068;SDS011;13887;57.196;-2.100;2022-07-29T00:23:41;17.53;;;16.50;;
22068;SDS011;13887;57.196;-2.100;2022-07-29T00:26:07;17.93;;;16.63;;
22068;SDS011;13887;57.196;-2.100;2022-07-29T00:28:33;18.07;;;17.07;;
22068;SDS011;13887;57.196;-2.100;2022-07-29T00:31:00;17.50;;;16.40;;
22068;SDS011;13887;57.196;-2.100;2022-07-29T00:33:27;18.40;;;17.10;;
22068;SDS011;13887;57.196;-2.100;2022-07-29T00:35:54;16.53;;;15.67;;
22068;SDS011;13887;57.196;-2.100;2022-07-29T00:38:22;16.60;;;15.63;;
22068;SDS011;13887;57.196;-2.100;2022-07-29T00:40:48;17.97;;;16.77;;
22068;SDS011;13887;57.196;-2.100;2022-07-29T00:43:15;17.97;;;16.97;;
22068;SDS011;13887;57.196;-2.100;2022-07-29T00:45:42;17.83;;;16.43;;
22068;SDS011;13887;57.196;-2.100;2022-07-29T00:48:09;17.80;;;16.60;;
22068;SDS011;13887;57.196;-2.100;2022-07-29T00:50:36;17.00;;;15.87;;
22068;SDS011;13887;57.196;-2.100;2022-07-29T00:53:03;18.23;;;16.87;;
22068;SDS011;13887;57.196;-2.100;2022-07-29T00:55:31;17.27;;;16.30;;
22068;SDS011;13887;57.196;-2.100;2022-07-29T00:57:58;17.63;;;16.63;;
22068;SDS011;13887;57.196;-2.100;2022-07-29T01:00:25;17.47;;;16.57;;
22068;SDS011;13887;57.196;-2.100;2022-07-29T01:02:53;17.57;;;16.33;;
22068;SDS011;13887;57.196;-2.100;2022-07-29T01:05:21;17.73;;;16.67;;
22068;SDS011;13887;57.196;-2.100;2022-07-29T01:07:50;18.17;;;17.07;;
22068;SDS011;13887;57.196;-2.100;2022-07-29T01:10:18;18.20;;;16.93;;
22068;SDS011;13887;57.196;-2.100;2022-07-29T01:12:47;18.10;;;17.00;;
22068;SDS011;13887;57.196;-2.100;2022-07-29T01:15:15;18.40;;;17.20;;
22068;SDS011;13887;57.196;-2.100;2022-07-29T01:17:43;18.13;;;16.93;;
22068;SDS011;13887;57.196;-2.100;2022-07-29T01:20:26;17.63;;;16.53;;
22068;SDS011;13887;57.196;-2.100;2022-07-29T01:26:13;17.00;;;15.83;;
22068;SDS011;13887;57.196;-2.100;2022-07-29T01:32:18;16.77;;;15.93;;
22068;SDS011;13887;57.196;-2.100;2022-07-29T01:34:57;16.50;;;15.40;;
22068;SDS011;13887;57.196;-2.100;2022-07-29T01:40:41;17.13;;;16.13;;
22068;SDS011;13887;57.196;-2.100;2022-07-29T01:43:13;16.97;;;15.87;;
22068;SDS011;13887;57.196;-2.100;2022-07-29T01:45:48;17.50;;;16.17;;
22068;SDS011;13887;57.196;-2.100;2022-07-29T01:48:21;17.60;;;16.40;;
22068;SDS011;13887;57.196;-2.100;2022-07-29T01:56:18;16.93;;;15.83;;
22068;SDS011;13887;57.196;-2.100;2022-07-29T01:58:46;17.40;;;16.20;;
22068;SDS011;13887;57.196;-2.100;2022-07-29T02:01:14;16.60;;;15.80;;
22068;SDS011;13887;57.196;-2.100;2022-07-29T02:03:44;17.30;;;16.23;;
22068;SDS011;13887;57.196;-2.100;2022-07-29T02:06:12;17.77;;;16.70;;
22068;SDS011;13887;57.196;-2.100;2022-07-29T02:08:43;16.87;;;15.87;;
22068;SDS011;13887;57.196;-2.100;2022-07-29T02:11:11;17.67;;;16.50;;
22068;SDS011;13887;57.196;-2.100;2022-07-29T02:13:37;17.17;;;16.07;;
22068;SDS011;13887;57.196;-2.100;2022-07-29T02:16:05;17.60;;;16.40;;
22068;SDS011;13887;57.196;-2.100;2022-07-29T02:18:33;16.70;;;15.90;;
22068;SDS011;13887;57.196;-2.100;2022-07-29T02:21:02;17.40;;;16.33;;
22068;SDS011;13887;57.196;-2.100;2022-07-29T02:23:29;17.03;;;16.03;;
22068;SDS011;13887;57.196;-2.100;2022-07-29T02:26:15;17.03;;;16.10;;
22068;SDS011;13887;57.196;-2.100;2022-07-29T02:28:43;17.30;;;16.17;;
22068;SDS011;13887;57.196;-2.100;2022-07-29T02:31:12;17.73;;;16.57;;
22068;SDS011;13887;57.196;-2.100;2022-07-29T02:33:39;16.67;;;15.87;;
22068;SDS011;13887;57.196;-2.100;2022-07-29T02:36:07;17.40;;;16.23;;
22068;SDS011;13887;57.196;-2.100;2022-07-29T02:38:33;18.33;;;17.03;;
22068;SDS011;13887;57.196;-2.100;2022-07-29T02:41:20;17.93;;;16.73;;
22068;SDS011;13887;57.196;-2.100;2022-07-29T02:43:50;17.70;;;16.67;;
22068;SDS011;13887;57.196;-2.100;2022-07-29T02:46:25;17.90;;;16.63;;
22068;SDS011;13887;57.196;-2.100;2022-07-29T02:49:02;16.63;;;15.73;;
22068;SDS011;13887;57.196;-2.100;2022-07-29T02:51:54;16.80;;;15.73;;
22068;SDS011;13887;57.196;-2.100;2022-07-29T02:54:26;18.03;;;16.93;;
22068;SDS011;13887;57.196;-2.100;2022-07-29T02:57:00;17.60;;;16.67;;
22068;SDS011;13887;57.196;-2.100;2022-07-29T02:59:32;17.77;;;16.73;;
22068;SDS011;13887;57.196;-2.100;2022-07-29T03:02:02;17.80;;;16.77;;
22068;SDS011;13887;57.196;-2.100;2022-07-29T03:04:30;17.40;;;16.47;;
22068;SDS011;13887;57.196;-2.100;2022-07-29T03:06:58;16.70;;;15.80;;
22068;SDS011;13887;57.196;-2.100;2022-07-29T03:09:26;17.13;;;16.33;;
22068;SDS011;13887;57.196;-2.100;2022-07-29T03:11:54;17.10;;;16.30;;
22068;SDS011;13887;57.196;-2.100;2022-07-29T03:14:21;17.83;;;16.63;;
22068;SDS011;13887;57.196;-2.100;2022-07-29T03:16:49;17.00;;;16.10;;
22068;SDS011;13887;57.196;-2.100;2022-07-29T03:19:17;17.90;;;16.93;;
22068;SDS011;13887;57.196;-2.100;2022-07-29T03:21:44;17.70;;;16.60;;
22068;SDS011;13887;57.196;-2.100;2022-07-29T03:24:10;17.43;;;16.57;;
22068;SDS011;13887;57.196;-2.100;2022-07-29T03:26:49;16.97;;;15.93;;
22068;SDS011;13887;57.196;-2.100;2022-07-29T03:29:15;17.80;;;16.90;;
22068;SDS011;13887;57.196;-2.100;2022-07-29T03:31:45;17.70;;;16.47;;
22068;SDS011;13887;57.196;-2.100;2022-07-29T03:34:11;17.60;;;16.60;;
22068;SDS011;13887;57.196;-2.100;2022-07-29T03:36:38;17.03;;;16.20;;
22068;SDS011;13887;57.196;-2.100;2022-07-29T03:39:04;17.00;;;16.10;;
22068;SDS011;13887;57.196;-2.100;2022-07-29T03:41:32;17.60;;;16.60;;
22068;SDS011;13887;57.196;-2.100;2022-07-29T03:44:00;18.30;;;17.07;;
22068;SDS011;13887;57.196;-2.100;2022-07-29T03:46:27;18.23;;;17.03;;
22068;SDS011;13887;57.196;-2.100;2022-07-29T03:48:55;18.83;;;17.40;;
22068;SDS011;13887;57.196;-2.100;2022-07-29T03:51:25;17.73;;;16.53;;
22068;SDS011;13887;57.196;-2.100;2022-07-29T03:54:00;18.33;;;17.33;;
22068;SDS011;13887;57.196;-2.100;2022-07-29T03:56:40;19.80;;;18.03;;
22068;SDS011;13887;57.196;-2.100;2022-07-29T03:59:12;18.67;;;17.40;;
22068;SDS011;13887;57.196;-2.100;2022-07-29T04:01:43;19.40;;;17.97;;
22068;SDS011;13887;57.196;-2.100;2022-07-29T04:04:10;19.00;;;17.43;;
22068;SDS011;13887;57.196;-2.100;2022-07-29T04:06:43;19.10;;;17.80;;
22068;SDS011;13887;57.196;-2.100;2022-07-29T04:09:14;19.93;;;18.50;;
22068;SDS011;13887;57.196;-2.100;2022-07-29T04:11:40;19.50;;;18.10;;
22068;SDS011;13887;57.196;-2.100;2022-07-29T04:14:27;20.10;;;18.67;;
22068;SDS011;13887;57.196;-2.100;2022-07-29T04:16:53;20.77;;;19.27;;
22068;SDS011;13887;57.196;-2.100;2022-07-29T04:19:19;20.80;;;18.93;;
22068;SDS011;13887;57.196;-2.100;2022-07-29T04:21:46;19.20;;;18.00;;
22068;SDS011;13887;57.196;-2.100;2022-07-29T04:24:12;18.87;;;17.70;;
22068;SDS011;13887;57.196;-2.100;2022-07-29T04:26:39;19.90;;;18.20;;
22068;SDS011;13887;57.196;-2.100;2022-07-29T04:29:05;19.47;;;17.97;;
22068;SDS011;13887;57.196;-2.100;2022-07-29T04:31:31;19.50;;;17.90;;
22068;SDS011;13887;57.196;-2.100;2022-07-29T04:33:57;19.60;;;18.30;;
22068;SDS011;13887;57.196;-2.100;2022-07-29T04:36:24;19.27;;;17.97;;
22068;SDS011;13887;57.196;-2.100;2022-07-29T04:38:55;20.57;;;18.47;;
22068;SDS011;13887;57.196;-2.100;2022-07-29T04:41:21;20.70;;;19.40;;
22068;SDS011;13887;57.196;-2.100;2022-07-29T04:43:48;19.03;;;17.67;;
22068;SDS011;13887;57.196;-2.100;2022-07-29T04:46:15;18.53;;;17.33;;
22068;SDS011;13887;57.196;-2.100;2022-07-29T04:48:41;19.63;;;18.27;;
22068;SDS011;13887;57.196;-2.100;2022-07-29T04:51:07;20.07;;;18.60;;
22068;SDS011;13887;57.196;-2.100;2022-07-29T04:53:34;18.80;;;17.33;;
22068;SDS011;13887;57.196;-2.100;2022-07-29T04:56:00;18.83;;;17.63;;
22068;SDS011;13887;57.196;-2.100;2022-07-29T04:58:26;18.33;;;17.03;;
22068;SDS011;13887;57.196;-2.100;2022-07-29T05:00:52;19.00;;;17.90;;
22068;SDS011;13887;57.196;-2.100;2022-07-29T05:03:19;19.27;;;17.93;;
22068;SDS011;13887;57.196;-2.100;2022-07-29T05:05:45;20.50;;;18.70;;
22068;SDS011;13887;57.196;-2.100;2022-07-29T05:08:11;18.83;;;17.50;;
22068;SDS011;13887;57.196;-2.100;2022-07-29T05:10:38;18.40;;;17.30;;
22068;SDS011;13887;57.196;-2.100;2022-07-29T05:13:05;18.40;;;17.40;;
22068;SDS011;13887;57.196;-2.100;2022-07-29T05:15:32;19.33;;;17.90;;
22068;SDS011;13887;57.196;-2.100;2022-07-29T05:17:59;19.07;;;17.80;;
22068;SDS011;13887;57.196;-2.100;2022-07-29T05:20:26;19.53;;;18.23;;
22068;SDS011;13887;57.196;-2.100;2022-07-29T05:22:55;20.10;;;18.30;;
22068;SDS011;13887;57.196;-2.100;2022-07-29T05:25:25;18.27;;;17.27;;
22068;SDS011;13887;57.196;-2.100;2022-07-29T05:28:09;17.93;;;16.93;;
22068;SDS011;13887;57.196;-2.100;2022-07-29T05:30:35;17.70;;;16.50;;
22068;SDS011;13887;57.196;-2.100;2022-07-29T05:33:02;17.40;;;16.30;;
22068;SDS011;13887;57.196;-2.100;2022-07-29T05:35:28;18.23;;;17.03;;
22068;SDS011;13887;57.196;-2.100;2022-07-29T05:37:54;16.40;;;15.50;;
22068;SDS011;13887;57.196;-2.100;2022-07-29T05:40:20;16.93;;;15.80;;
22068;SDS011;13887;57.196;-2.100;2022-07-29T05:42:47;17.37;;;16.20;;
22068;SDS011;13887;57.196;-2.100;2022-07-29T05:45:13;16.20;;;15.30;;
22068;SDS011;13887;57.196;-2.100;2022-07-29T05:47:39;15.97;;;15.07;;
22068;SDS011;13887;57.196;-2.100;2022-07-29T05:50:05;16.40;;;15.20;;
22068;SDS011;13887;57.196;-2.100;2022-07-29T05:52:32;15.93;;;14.97;;
22068;SDS011;13887;57.196;-2.100;2022-07-29T05:54:58;16.20;;;15.30;;
22068;SDS011;13887;57.196;-2.100;2022-07-29T05:57:28;16.07;;;14.73;;
22068;SDS011;13887;57.196;-2.100;2022-07-29T05:59:54;15.93;;;14.97;;
22068;SDS011;13887;57.196;-2.100;2022-07-29T06:02:20;16.70;;;15.70;;
22068;SDS011;13887;57.196;-2.100;2022-07-29T06:04:47;16.50;;;15.40;;
22068;SDS011;13887;57.196;-2.100;2022-07-29T06:07:14;16.50;;;15.37;;
22068;SDS011;13887;57.196;-2.100;2022-07-29T06:09:42;16.50;;;15.40;;
22068;SDS011;13887;57.196;-2.100;2022-07-29T06:12:08;15.90;;;14.80;;
22068;SDS011;13887;57.196;-2.100;2022-07-29T06:14:35;15.70;;;14.90;;
22068;SDS011;13887;57.196;-2.100;2022-07-29T06:17:01;15.53;;;14.57;;
22068;SDS011;13887;57.196;-2.100;2022-07-29T06:19:28;15.37;;;14.67;;
22068;SDS011;13887;57.196;-2.100;2022-07-29T06:21:54;15.70;;;14.70;;
22068;SDS011;13887;57.196;-2.100;2022-07-29T06:24:20;15.83;;;14.60;;
22068;SDS011;13887;57.196;-2.100;2022-07-29T06:26:47;15.83;;;14.80;;
22068;SDS011;13887;57.196;-2.100;2022-07-29T06:29:13;16.20;;;15.10;;
22068;SDS011;13887;57.196;-2.100;2022-07-29T06:31:39;15.70;;;14.80;;
22068;SDS011;13887;57.196;-2.100;2022-07-29T06:34:05;15.77;;;14.77;;
22068;SDS011;13887;57.196;-2.100;2022-07-29T06:36:35;15.80;;;14.90;;
22068;SDS011;13887;57.196;-2.100;2022-07-29T06:39:06;14.67;;;13.90;;
22068;SDS011;13887;57.196;-2.100;2022-07-29T06:41:33;14.90;;;14.10;;
22068;SDS011;13887;57.196;-2.100;2022-07-29T06:44:07;15.33;;;14.40;;
22068;SDS011;13887;57.196;-2.100;2022-07-29T06:46:34;15.33;;;14.43;;
22068;SDS011;13887;57.196;-2.100;2022-07-29T06:49:01;14.93;;;14.10;;
22068;SDS011;13887;57.196;-2.100;2022-07-29T06:51:28;14.73;;;13.93;;
22068;SDS011;13887;57.196;-2.100;2022-07-29T06:53:54;14.83;;;13.90;;
22068;SDS011;13887;57.196;-2.100;2022-07-29T06:56:28;14.87;;;14.07;;
22068;SDS011;13887;57.196;-2.100;2022-07-29T06:59:09;14.60;;;13.80;;
22068;SDS011;13887;57.196;-2.100;2022-07-29T07:01:37;14.60;;;13.60;;
22068;SDS011;13887;57.196;-2.100;2022-07-29T07:04:05;14.70;;;13.90;;
22068;SDS011;13887;57.196;-2.100;2022-07-29T07:06:31;14.57;;;13.57;;
22068;SDS011;13887;57.196;-2.100;2022-07-29T07:08:57;14.27;;;13.17;;
22068;SDS011;13887;57.196;-2.100;2022-07-29T07:11:24;13.97;;;12.97;;
22068;SDS011;13887;57.196;-2.100;2022-07-29T07:13:50;13.90;;;13.10;;
22068;SDS011;13887;57.196;-2.100;2022-07-29T07:16:16;15.00;;;13.70;;
22068;SDS011;13887;57.196;-2.100;2022-07-29T07:18:42;13.63;;;12.87;;
22068;SDS011;13887;57.196;-2.100;2022-07-29T07:21:10;14.50;;;13.40;;
22068;SDS011;13887;57.196;-2.100;2022-07-29T07:23:44;13.90;;;13.07;;
22068;SDS011;13887;57.196;-2.100;2022-07-29T07:26:10;13.97;;;13.20;;
22068;SDS011;13887;57.196;-2.100;2022-07-29T07:28:36;14.43;;;13.60;;
22068;SDS011;13887;57.196;-2.100;2022-07-29T07:31:02;13.47;;;12.80;;
22068;SDS011;13887;57.196;-2.100;2022-07-29T07:33:29;13.93;;;13.23;;
22068;SDS011;13887;57.196;-2.100;2022-07-29T07:35:55;14.03;;;13.30;;
22068;SDS011;13887;57.196;-2.100;2022-07-29T07:38:21;14.20;;;13.20;;
22068;SDS011;13887;57.196;-2.100;2022-07-29T07:40:48;14.20;;;13.20;;
22068;SDS011;13887;57.196;-2.100;2022-07-29T07:43:14;14.97;;;13.43;;
22068;SDS011;13887;57.196;-2.100;2022-07-29T07:45:40;13.37;;;12.50;;
22068;SDS011;13887;57.196;-2.100;2022-07-29T07:48:07;14.13;;;13.23;;
22068;SDS011;13887;57.196;-2.100;2022-07-29T07:50:36;14.03;;;13.13;;
22068;SDS011;13887;57.196;-2.100;2022-07-29T07:53:02;14.53;;;13.43;;
22068;SDS011;13887;57.196;-2.100;2022-07-29T07:55:28;13.93;;;13.00;;
22068;SDS011;13887;57.196;-2.100;2022-07-29T07:58:15;14.03;;;13.20;;
22068;SDS011;13887;57.196;-2.100;2022-07-29T08:00:41;14.63;;;13.43;;
22068;SDS011;13887;57.196;-2.100;2022-07-29T08:03:07;14.07;;;13.27;;
22068;SDS011;13887;57.196;-2.100;2022-07-29T08:05:43;15.30;;;14.30;;
22068;SDS011;13887;57.196;-2.100;2022-07-29T08:08:09;14.73;;;13.90;;
22068;SDS011;13887;57.196;-2.100;2022-07-29T08:10:36;15.27;;;14.10;;
22068;SDS011;13887;57.196;-2.100;2022-07-29T08:13:20;14.07;;;13.27;;
22068;SDS011;13887;57.196;-2.100;2022-07-29T08:15:49;14.40;;;13.50;;
22068;SDS011;13887;57.196;-2.100;2022-07-29T08:18:26;14.27;;;13.43;;
22068;SDS011;13887;57.196;-2.100;2022-07-29T08:20:56;15.37;;;14.40;;
22068;SDS011;13887;57.196;-2.100;2022-07-29T08:23:23;15.27;;;14.23;;
22068;SDS011;13887;57.196;-2.100;2022-07-29T08:25:50;15.43;;;14.43;;
22068;SDS011;13887;57.196;-2.100;2022-07-29T08:28:17;15.47;;;14.20;;
22068;SDS011;13887;57.196;-2.100;2022-07-29T08:30:43;14.60;;;13.77;;
22068;SDS011;13887;57.196;-2.100;2022-07-29T08:33:09;15.17;;;14.30;;
22068;SDS011;13887;57.196;-2.100;2022-07-29T08:35:36;14.97;;;13.87;;
22068;SDS011;13887;57.196;-2.100;2022-07-29T08:38:02;14.73;;;13.83;;
22068;SDS011;13887;57.196;-2.100;2022-07-29T08:40:29;15.63;;;14.37;;
22068;SDS011;13887;57.196;-2.100;2022-07-29T08:42:58;14.73;;;13.90;;
22068;SDS011;13887;57.196;-2.100;2022-07-29T08:45:35;14.97;;;14.17;;
22068;SDS011;13887;57.196;-2.100;2022-07-29T08:48:14;15.37;;;14.43;;
22068;SDS011;13887;57.196;-2.100;2022-07-29T08:50:42;14.97;;;14.07;;
22068;SDS011;13887;57.196;-2.100;2022-07-29T08:53:12;15.13;;;13.80;;
22068;SDS011;13887;57.196;-2.100;2022-07-29T08:55:41;15.20;;;14.20;;
22068;SDS011;13887;57.196;-2.100;2022-07-29T08:58:09;14.37;;;13.57;;
22068;SDS011;13887;57.196;-2.100;2022-07-29T09:00:42;14.87;;;13.87;;
22068;SDS011;13887;57.196;-2.100;2022-07-29T09:03:15;14.40;;;13.50;;
22068;SDS011;13887;57.196;-2.100;2022-07-29T09:05:44;15.33;;;14.33;;
22068;SDS011;13887;57.196;-2.100;2022-07-29T09:08:14;13.83;;;13.17;;
22068;SDS011;13887;57.196;-2.100;2022-07-29T09:10:42;13.73;;;12.83;;
22068;SDS011;13887;57.196;-2.100;2022-07-29T09:13:09;14.40;;;13.70;;
22068;SDS011;13887;57.196;-2.100;2022-07-29T09:15:35;15.10;;;13.80;;
22068;SDS011;13887;57.196;-2.100;2022-07-29T09:18:02;14.87;;;14.03;;
22068;SDS011;13887;57.196;-2.100;2022-07-29T09:20:28;14.40;;;13.60;;
22068;SDS011;13887;57.196;-2.100;2022-07-29T09:23:13;14.57;;;13.77;;
22068;SDS011;13887;57.196;-2.100;2022-07-29T09:25:49;15.07;;;14.07;;
22068;SDS011;13887;57.196;-2.100;2022-07-29T09:28:16;14.30;;;13.40;;
22068;SDS011;13887;57.196;-2.100;2022-07-29T09:30:53;14.23;;;13.33;;
22068;SDS011;13887;57.196;-2.100;2022-07-29T09:33:22;14.40;;;13.50;;
22068;SDS011;13887;57.196;-2.100;2022-07-29T09:36:04;14.67;;;13.77;;
22068;SDS011;13887;57.196;-2.100;2022-07-29T09:38:32;14.87;;;13.87;;
22068;SDS011;13887;57.196;-2.100;2022-07-29T09:41:00;14.67;;;13.83;;
22068;SDS011;13887;57.196;-2.100;2022-07-29T09:43:31;15.00;;;14.07;;
22068;SDS011;13887;57.196;-2.100;2022-07-29T09:46:09;14.93;;;13.70;;
22068;SDS011;13887;57.196;-2.100;2022-07-29T09:48:37;14.17;;;13.30;;
22068;SDS011;13887;57.196;-2.100;2022-07-29T09:51:04;14.27;;;13.57;;
22068;SDS011;13887;57.196;-2.100;2022-07-29T09:53:33;15.43;;;14.20;;
22068;SDS011;13887;57.196;-2.100;2022-07-29T09:56:00;14.97;;;14.20;;
22068;SDS011;13887;57.196;-2.100;2022-07-29T09:58:28;15.07;;;14.07;;
22068;SDS011;13887;57.196;-2.100;2022-07-29T10:00:54;15.40;;;14.40;;
22068;SDS011;13887;57.196;-2.100;2022-07-29T10:03:21;15.60;;;14.33;;
22068;SDS011;13887;57.196;-2.100;2022-07-29T10:06:10;15.60;;;14.60;;
22068;SDS011;13887;57.196;-2.100;2022-07-29T10:08:36;16.00;;;15.10;;
22068;SDS011;13887;57.196;-2.100;2022-07-29T10:11:15;14.60;;;13.87;;
22068;SDS011;13887;57.196;-2.100;2022-07-29T10:13:43;14.73;;;13.73;;
22068;SDS011;13887;57.196;-2.100;2022-07-29T10:16:11;15.40;;;14.50;;
22068;SDS011;13887;57.196;-2.100;2022-07-29T10:18:40;15.57;;;14.83;;
22068;SDS011;13887;57.196;-2.100;2022-07-29T10:21:09;14.43;;;13.73;;
22068;SDS011;13887;57.196;-2.100;2022-07-29T10:23:47;15.13;;;14.40;;
22068;SDS011;13887;57.196;-2.100;2022-07-29T10:26:14;15.53;;;14.67;;
22068;SDS011;13887;57.196;-2.100;2022-07-29T10:28:42;15.57;;;14.67;;
22068;SDS011;13887;57.196;-2.100;2022-07-29T10:31:10;15.70;;;14.73;;
22068;SDS011;13887;57.196;-2.100;2022-07-29T10:34:02;16.00;;;14.90;;
22068;SDS011;13887;57.196;-2.100;2022-07-29T10:42:21;15.60;;;14.70;;
22068;SDS011;13887;57.196;-2.100;2022-07-29T10:44:59;15.20;;;14.30;;
22068;SDS011;13887;57.196;-2.100;2022-07-29T10:47:27;15.00;;;14.20;;
22068;SDS011;13887;57.196;-2.100;2022-07-29T10:55:34;14.23;;;13.47;;
22068;SDS011;13887;57.196;-2.100;2022-07-29T11:00:47;14.90;;;13.93;;
22068;SDS011;13887;57.196;-2.100;2022-07-29T11:06:15;14.77;;;14.03;;
22068;SDS011;13887;57.196;-2.100;2022-07-29T11:09:14;14.43;;;13.43;;
22068;SDS011;13887;57.196;-2.100;2022-07-29T11:11:42;15.07;;;14.17;;
22068;SDS011;13887;57.196;-2.100;2022-07-29T11:14:17;15.43;;;14.43;;
22068;SDS011;13887;57.196;-2.100;2022-07-29T11:17:05;15.40;;;14.40;;
22068;SDS011;13887;57.196;-2.100;2022-07-29T11:19:34;15.10;;;14.33;;
22068;SDS011;13887;57.196;-2.100;2022-07-29T11:22:07;15.07;;;14.20;;
22068;SDS011;13887;57.196;-2.100;2022-07-29T11:24:34;15.80;;;14.70;;
22068;SDS011;13887;57.196;-2.100;2022-07-29T11:29:59;15.20;;;14.50;;
22068;SDS011;13887;57.196;-2.100;2022-07-29T11:32:36;15.33;;;14.53;;
22068;SDS011;13887;57.196;-2.100;2022-07-29T11:35:20;15.60;;;14.43;;
22068;SDS011;13887;57.196;-2.100;2022-07-29T11:38:26;14.40;;;13.70;;
22068;SDS011;13887;57.196;-2.100;2022-07-29T11:43:47;14.80;;;13.80;;
22068;SDS011;13887;57.196;-2.100;2022-07-29T11:46:18;15.17;;;14.17;;
22068;SDS011;13887;57.196;-2.100;2022-07-29T11:49:04;15.23;;;14.43;;
22068;SDS011;13887;57.196;-2.100;2022-07-29T11:51:38;15.63;;;14.70;;
22068;SDS011;13887;57.196;-2.100;2022-07-29T11:54:26;15.50;;;14.60;;
22068;SDS011;13887;57.196;-2.100;2022-07-29T11:56:59;15.43;;;14.63;;
22068;SDS011;13887;57.196;-2.100;2022-07-29T11:59:26;15.83;;;14.93;;
22068;SDS011;13887;57.196;-2.100;2022-07-29T12:02:00;14.03;;;13.03;;
22068;SDS011;13887;57.196;-2.100;2022-07-29T12:04:51;16.60;;;15.17;;
22068;SDS011;13887;57.196;-2.100;2022-07-29T12:07:18;15.97;;;14.77;;
22068;SDS011;13887;57.196;-2.100;2022-07-29T12:10:00;15.97;;;14.97;;
22068;SDS011;13887;57.196;-2.100;2022-07-29T12:12:28;15.10;;;14.30;;
22068;SDS011;13887;57.196;-2.100;2022-07-29T12:14:54;14.73;;;13.83;;
22068;SDS011;13887;57.196;-2.100;2022-07-29T12:19:57;14.73;;;14.00;;
22068;SDS011;13887;57.196;-2.100;2022-07-29T12:22:28;14.77;;;14.07;;
22068;SDS011;13887;57.196;-2.100;2022-07-29T12:25:01;15.57;;;14.77;;
22068;SDS011;13887;57.196;-2.100;2022-07-29T12:28:01;15.60;;;14.57;;
22068;SDS011;13887;57.196;-2.100;2022-07-29T12:30:37;15.47;;;14.47;;
22068;SDS011;13887;57.196;-2.100;2022-07-29T12:33:14;15.33;;;14.60;;
22068;SDS011;13887;57.196;-2.100;2022-07-29T12:35:42;15.33;;;14.33;;
22068;SDS011;13887;57.196;-2.100;2022-07-29T12:38:19;15.23;;;14.33;;
22068;SDS011;13887;57.196;-2.100;2022-07-29T12:40:46;14.90;;;14.20;;
22068;SDS011;13887;57.196;-2.100;2022-07-29T12:43:14;15.73;;;14.57;;
22068;SDS011;13887;57.196;-2.100;2022-07-29T12:45:44;15.10;;;14.37;;
22068;SDS011;13887;57.196;-2.100;2022-07-29T12:48:12;15.20;;;14.17;;
22068;SDS011;13887;57.196;-2.100;2022-07-29T12:53:39;15.13;;;14.40;;
22068;SDS011;13887;57.196;-2.100;2022-07-29T12:56:06;15.10;;;14.40;;
22068;SDS011;13887;57.196;-2.100;2022-07-29T12:59:10;15.50;;;14.70;;
22068;SDS011;13887;57.196;-2.100;2022-07-29T13:01:49;15.57;;;14.67;;
22068;SDS011;13887;57.196;-2.100;2022-07-29T13:12:12;16.20;;;15.10;;
22068;SDS011;13887;57.196;-2.100;2022-07-29T13:14:40;15.77;;;14.80;;
22068;SDS011;13887;57.196;-2.100;2022-07-29T13:19:40;16.27;;;15.27;;
22068;SDS011;13887;57.196;-2.100;2022-07-29T13:22:20;16.40;;;15.20;;
22068;SDS011;13887;57.196;-2.100;2022-07-29T13:24:50;16.37;;;15.37;;
22068;SDS011;13887;57.196;-2.100;2022-07-29T13:27:18;20.73;;;19.07;;
22068;SDS011;13887;57.196;-2.100;2022-07-29T13:29:46;17.63;;;16.03;;
22068;SDS011;13887;57.196;-2.100;2022-07-29T13:32:13;16.53;;;15.63;;
22068;SDS011;13887;57.196;-2.100;2022-07-29T13:34:39;17.20;;;16.00;;
22068;SDS011;13887;57.196;-2.100;2022-07-29T13:37:06;17.50;;;16.30;;
22068;SDS011;13887;57.196;-2.100;2022-07-29T13:39:32;16.93;;;15.73;;
22068;SDS011;13887;57.196;-2.100;2022-07-29T13:41:58;17.20;;;15.90;;
22068;SDS011;13887;57.196;-2.100;2022-07-29T13:44:26;16.80;;;15.90;;
22068;SDS011;13887;57.196;-2.100;2022-07-29T13:46:52;16.73;;;15.60;;
22068;SDS011;13887;57.196;-2.100;2022-07-29T13:49:19;16.80;;;15.60;;
22068;SDS011;13887;57.196;-2.100;2022-07-29T13:51:46;16.87;;;15.87;;
22068;SDS011;13887;57.196;-2.100;2022-07-29T13:54:12;17.53;;;16.33;;
22068;SDS011;13887;57.196;-2.100;2022-07-29T13:56:39;18.80;;;16.93;;
22068;SDS011;13887;57.196;-2.100;2022-07-29T13:59:05;17.40;;;16.20;;
22068;SDS011;13887;57.196;-2.100;2022-07-29T14:01:31;17.07;;;15.87;;
22068;SDS011;13887;57.196;-2.100;2022-07-29T14:03:58;18.17;;;16.60;;
22068;SDS011;13887;57.196;-2.100;2022-07-29T14:06:24;16.70;;;15.63;;
22068;SDS011;13887;57.196;-2.100;2022-07-29T14:08:51;17.57;;;16.47;;
22068;SDS011;13887;57.196;-2.100;2022-07-29T14:11:17;18.20;;;16.57;;
22068;SDS011;13887;57.196;-2.100;2022-07-29T14:13:43;17.70;;;16.23;;
22068;SDS011;13887;57.196;-2.100;2022-07-29T14:16:10;16.13;;;14.97;;
22068;SDS011;13887;57.196;-2.100;2022-07-29T14:18:36;16.87;;;15.63;;
22068;SDS011;13887;57.196;-2.100;2022-07-29T14:21:03;16.77;;;15.67;;
22068;SDS011;13887;57.196;-2.100;2022-07-29T14:23:29;18.17;;;16.43;;
22068;SDS011;13887;57.196;-2.100;2022-07-29T14:25:55;17.73;;;16.50;;
22068;SDS011;13887;57.196;-2.100;2022-07-29T14:28:22;17.60;;;16.40;;
22068;SDS011;13887;57.196;-2.100;2022-07-29T14:30:48;17.50;;;16.33;;
22068;SDS011;13887;57.196;-2.100;2022-07-29T14:33:14;17.57;;;16.57;;
22068;SDS011;13887;57.196;-2.100;2022-07-29T14:35:40;17.83;;;16.27;;
22068;SDS011;13887;57.196;-2.100;2022-07-29T14:38:07;18.10;;;16.60;;
22068;SDS011;13887;57.196;-2.100;2022-07-29T14:40:33;16.80;;;15.63;;
22068;SDS011;13887;57.196;-2.100;2022-07-29T14:42:59;17.17;;;15.97;;
22068;SDS011;13887;57.196;-2.100;2022-07-29T14:45:26;17.17;;;15.53;;
22068;SDS011;13887;57.196;-2.100;2022-07-29T14:47:54;16.97;;;15.77;;
22068;SDS011;13887;57.196;-2.100;2022-07-29T14:50:23;17.43;;;16.33;;
22068;SDS011;13887;57.196;-2.100;2022-07-29T14:52:57;16.83;;;15.67;;
22068;SDS011;13887;57.196;-2.100;2022-07-29T14:55:23;16.87;;;15.70;;
22068;SDS011;13887;57.196;-2.100;2022-07-29T14:57:49;16.80;;;15.80;;
22068;SDS011;13887;57.196;-2.100;2022-07-29T15:00:16;17.30;;;16.00;;
22068;SDS011;13887;57.196;-2.100;2022-07-29T15:02:43;17.80;;;16.60;;
22068;SDS011;13887;57.196;-2.100;2022-07-29T15:05:26;17.07;;;15.80;;
22068;SDS011;13887;57.196;-2.100;2022-07-29T15:07:52;17.03;;;15.63;;
22068;SDS011;13887;57.196;-2.100;2022-07-29T15:10:19;16.30;;;15.50;;
22068;SDS011;13887;57.196;-2.100;2022-07-29T15:12:46;17.07;;;16.13;;
22068;SDS011;13887;57.196;-2.100;2022-07-29T15:15:12;16.90;;;15.90;;
22068;SDS011;13887;57.196;-2.100;2022-07-29T15:17:38;17.60;;;16.27;;